createdAt,value
2019-03-08T00:04:13.060Z,6.70
2019-03-08T00:09:18.294Z,6.70
2019-03-08T00:14:23.703Z,6.60
2019-03-08T00:19:28.836Z,6.60
2019-03-08T00:24:34.195Z,6.60
2019-03-08T00:29:41.564Z,6.50
2019-03-08T00:34:46.770Z,6.50
2019-03-08T00:39:52.122Z,6.50
2019-03-08T00:44:57.247Z,6.40
2019-03-08T00:50:02.534Z,6.60
2019-03-08T00:55:07.666Z,6.50
2019-03-08T01:00:15.180Z,6.60
2019-03-08T01:05:20.462Z,6.50
2019-03-08T01:10:26.129Z,6.40
2019-03-08T01:15:33.187Z,6.30
2019-03-08T01:20:38.387Z,6.30
2019-03-08T01:25:43.375Z,6.30
2019-03-08T01:30:50.356Z,6.30
2019-03-08T01:35:56.417Z,6.20
2019-03-08T01:41:01.673Z,6.30
2019-03-08T01:46:08.059Z,6.30
2019-03-08T01:51:13.316Z,6.30
2019-03-08T01:56:18.338Z,6.30
2019-03-08T02:01:23.426Z,6.30
2019-03-08T02:06:30.194Z,6.40
2019-03-08T02:11:36.926Z,6.50
2019-03-08T02:16:41.963Z,6.60
2019-03-08T02:21:47.324Z,6.70
2019-03-08T02:26:52.349Z,6.80
2019-03-08T02:31:57.390Z,6.80
2019-03-08T02:37:02.534Z,6.80
2019-03-08T02:42:07.846Z,6.70
2019-03-08T02:47:12.969Z,6.70
2019-03-08T02:52:18.259Z,6.80
2019-03-08T02:57:23.624Z,6.80
2019-03-08T03:02:28.643Z,6.80
2019-03-08T03:07:33.731Z,6.90
2019-03-08T03:12:39.090Z,6.90
2019-03-08T03:17:44.449Z,6.90
2019-03-08T03:22:49.502Z,6.80
2019-03-08T03:27:54.875Z,6.70
2019-03-08T03:33:01.254Z,6.70
2019-03-08T03:38:06.813Z,6.70
2019-03-08T03:43:12.175Z,6.70
2019-03-08T03:48:17.230Z,6.60
2019-03-08T03:53:22.324Z,6.60
2019-03-08T03:58:27.406Z,6.60
2019-03-08T04:03:32.448Z,6.60
2019-03-08T04:08:37.512Z,6.60
2019-03-08T04:13:42.803Z,6.60
2019-03-08T04:18:47.825Z,6.60
2019-03-08T04:23:52.902Z,6.40
2019-03-08T04:28:57.959Z,6.30
2019-03-08T04:34:04.355Z,6.30
2019-03-08T04:39:10.153Z,6.30
2019-03-08T04:44:15.276Z,6.30
2019-03-08T04:49:21.285Z,6.30
2019-03-08T04:54:26.336Z,6.40
2019-03-08T04:59:31.666Z,6.30
2019-03-08T05:04:36.907Z,6.30
2019-03-08T05:09:42.385Z,6.30
2019-03-08T05:14:49.437Z,6.30
2019-03-08T05:19:54.648Z,6.30
2019-03-08T05:25:00.004Z,6.10
2019-03-08T05:30:06.087Z,6.00
2019-03-08T05:35:11.309Z,6.00
2019-03-08T05:40:16.701Z,5.90
2019-03-08T05:45:22.062Z,5.80
2019-03-08T05:50:27.081Z,5.90
2019-03-08T05:55:32.204Z,6.00
2019-03-08T06:00:37.530Z,6.00
2019-03-08T06:05:42.583Z,6.00
2019-03-08T06:10:47.944Z,5.90
2019-03-08T06:15:53.305Z,5.90
2019-03-08T06:20:58.359Z,5.80
2019-03-08T06:26:03.486Z,5.90
2019-03-08T06:31:08.525Z,5.90
2019-03-08T06:36:13.694Z,5.90
2019-03-08T06:41:18.883Z,6.00
2019-03-08T06:46:25.774Z,6.00
2019-03-08T06:51:30.699Z,6.00
2019-03-08T06:56:35.885Z,5.90
2019-03-08T07:01:42.645Z,5.90
2019-03-08T07:06:47.835Z,6.10
2019-03-08T07:11:53.198Z,6.10
2019-03-08T07:16:58.356Z,6.00
2019-03-08T07:22:08.598Z,6.20
2019-03-08T07:27:31.706Z,6.20
2019-03-08T07:32:58.594Z,5.60
2019-03-08T07:38:30.044Z,5.50
2019-03-08T07:44:09.272Z,5.60
2019-03-08T07:49:29.309Z,5.70
2019-03-08T07:54:53.233Z,6.00
2019-03-08T08:00:16.345Z,6.00
2019-03-08T08:05:58.301Z,6.00
2019-03-08T08:11:27.205Z,6.00
2019-03-08T08:16:46.152Z,6.20
2019-03-08T08:22:04.631Z,6.40
2019-03-08T08:27:22.308Z,6.40
2019-03-08T08:32:46.320Z,6.70
2019-03-08T08:38:13.277Z,6.60
2019-03-08T08:43:40.441Z,6.20
2019-03-08T08:49:04.613Z,6.10
2019-03-08T08:54:31.418Z,6.30
2019-03-08T09:00:01.901Z,6.60
2019-03-08T09:05:27.288Z,6.60
2019-03-08T09:10:50.789Z,6.90
2019-03-08T09:16:06.271Z,7.40
2019-03-08T09:21:42.544Z,7.70
2019-03-08T09:27:07.069Z,7.60
2019-03-08T09:32:21.121Z,7.60
2019-03-08T09:37:46.363Z,7.60
2019-03-08T09:43:10.463Z,7.70
2019-03-08T09:48:32.421Z,8.00
2019-03-08T09:54:05.355Z,8.20
2019-03-08T09:59:23.069Z,7.80
2019-03-08T10:04:53.314Z,7.20
2019-03-08T10:10:17.411Z,6.80
2019-03-08T10:15:59.942Z,6.40
2019-03-08T10:21:36.100Z,6.40
2019-03-08T10:27:05.042Z,6.50
2019-03-08T10:32:37.391Z,6.70
2019-03-08T10:37:48.611Z,6.90
2019-03-08T10:43:04.210Z,7.20
2019-03-08T10:48:30.056Z,7.60
2019-03-08T10:53:50.771Z,8.30
2019-03-08T10:59:13.461Z,8.60
2019-03-08T11:04:32.226Z,8.00
2019-03-08T11:09:59.412Z,7.90
2019-03-08T11:15:24.704Z,7.90
2019-03-08T11:20:40.237Z,7.70
2019-03-08T11:26:19.390Z,8.00
2019-03-08T11:31:36.144Z,7.20
2019-03-08T11:37:00.206Z,7.30
2019-03-08T11:42:30.270Z,7.70
2019-03-08T11:47:56.074Z,8.10
2019-03-08T11:53:16.810Z,8.40
2019-03-08T11:58:48.674Z,8.60
2019-03-08T12:04:04.179Z,8.40
2019-03-08T12:09:31.889Z,8.50
2019-03-08T12:15:02.129Z,8.60
2019-03-08T12:20:16.071Z,8.50
2019-03-08T12:25:40.774Z,8.30
2019-03-08T12:31:03.085Z,8.30
2019-03-08T12:36:26.214Z,8.50
2019-03-08T12:41:40.281Z,8.60
2019-03-08T12:47:03.051Z,8.90
2019-03-08T12:52:33.320Z,8.90
2019-03-08T12:57:55.887Z,8.80
2019-03-08T13:03:13.300Z,8.90
2019-03-08T13:08:44.069Z,8.70
2019-03-08T13:13:58.970Z,8.80
2019-03-08T13:19:04.195Z,8.60
2019-03-08T13:24:09.382Z,8.80
2019-03-08T13:29:14.437Z,9.00
2019-03-08T13:39:37.617Z,9.00
2019-03-08T13:44:42.647Z,9.10
2019-03-08T13:49:48.167Z,9.00
2019-03-08T13:54:53.223Z,9.00
2019-03-08T14:00:00.120Z,8.80
2019-03-08T14:05:06.054Z,9.10
2019-03-08T14:10:13.606Z,9.30
2019-03-08T14:15:18.734Z,9.60
2019-03-08T14:20:24.021Z,9.70
2019-03-08T14:25:29.063Z,9.40
2019-03-08T14:30:38.004Z,9.60
2019-03-08T14:35:43.485Z,9.30
2019-03-08T14:41:06.937Z,9.50
2019-03-08T14:46:17.302Z,9.20
2019-03-08T14:51:24.145Z,9.00
2019-03-08T14:56:31.940Z,9.00
2019-03-08T15:01:40.000Z,8.90
2019-03-08T15:06:42.680Z,8.90
2019-03-08T15:11:48.018Z,8.80
2019-03-08T15:16:53.069Z,9.00
2019-03-08T15:21:59.574Z,8.90
2019-03-08T15:27:04.550Z,9.00
2019-03-08T15:32:09.996Z,9.10
2019-03-08T15:37:15.122Z,9.00
2019-03-08T15:42:20.206Z,9.00
2019-03-08T15:47:25.572Z,9.00
2019-03-08T15:52:33.692Z,8.80
2019-03-08T15:57:39.052Z,8.60
2019-03-08T16:02:44.137Z,8.50
2019-03-08T16:07:49.333Z,8.40
2019-03-08T16:12:54.520Z,8.40
2019-03-08T16:17:59.856Z,8.30
2019-03-08T16:23:06.541Z,8.20
2019-03-08T16:28:11.697Z,8.10
2019-03-08T16:33:20.339Z,8.00
2019-03-08T16:38:38.577Z,7.80
2019-03-08T16:43:55.870Z,7.80
2019-03-08T16:49:31.871Z,7.70
2019-03-08T16:54:58.106Z,7.60
2019-03-08T17:00:18.482Z,7.40
2019-03-08T17:05:57.768Z,7.30
2019-03-08T17:11:15.702Z,7.20
2019-03-08T17:16:42.589Z,7.00
2019-03-08T17:22:05.449Z,7.00
2019-03-08T17:27:47.653Z,6.90
2019-03-08T17:33:11.397Z,6.90
2019-03-08T17:38:24.513Z,6.90
2019-03-08T17:43:47.295Z,6.80
2019-03-08T17:49:17.328Z,6.70
2019-03-08T17:54:44.193Z,6.60
2019-03-08T18:00:05.822Z,6.60
2019-03-08T18:05:40.762Z,6.50
2019-03-08T18:11:04.789Z,6.60
2019-03-08T18:16:17.286Z,6.60
2019-03-08T18:21:36.696Z,6.60
2019-03-08T18:27:09.822Z,6.50
2019-03-08T18:32:21.836Z,6.50
2019-03-08T18:37:55.054Z,6.40
2019-03-08T18:43:17.101Z,6.30
2019-03-08T18:48:30.115Z,6.30
2019-03-08T18:53:58.184Z,6.20
2019-03-08T18:59:37.770Z,6.00
2019-03-08T19:05:02.417Z,6.00
2019-03-08T19:10:42.181Z,5.90
2019-03-08T19:15:56.434Z,5.90
2019-03-08T19:21:13.176Z,5.90
2019-03-08T19:26:46.493Z,5.70
2019-03-08T19:32:13.672Z,5.50
2019-03-08T19:37:43.471Z,5.40
2019-03-08T19:43:06.517Z,5.30
2019-03-08T19:48:29.725Z,5.10
2019-03-08T19:54:03.145Z,4.90
2019-03-08T19:59:14.473Z,4.80
2019-03-08T20:04:31.814Z,4.60
2019-03-08T20:09:59.297Z,4.40
2019-03-08T20:15:31.548Z,4.30
2019-03-08T20:20:59.547Z,4.20
2019-03-08T20:26:23.575Z,4.20
2019-03-08T20:31:59.633Z,4.10
2019-03-08T20:37:14.229Z,4.20
2019-03-08T20:42:41.103Z,4.20
2019-03-08T20:47:46.129Z,4.30
2019-03-08T20:52:51.206Z,4.40
2019-03-08T20:57:58.055Z,4.30
2019-03-08T21:03:03.158Z,4.10
2019-03-08T21:08:08.189Z,3.90
2019-03-08T21:13:13.263Z,4.10
2019-03-08T21:18:18.321Z,4.30
2019-03-08T21:23:23.373Z,4.40
2019-03-08T21:28:28.424Z,4.40
2019-03-08T21:33:33.784Z,4.40
2019-03-08T21:38:38.840Z,4.40
2019-03-08T21:43:44.439Z,4.40
2019-03-08T21:48:49.866Z,4.50
2019-03-08T21:53:55.159Z,4.40
2019-03-08T21:59:00.285Z,4.50
2019-03-08T22:04:11.354Z,4.60
2019-03-08T22:09:38.345Z,4.60
2019-03-08T22:14:43.399Z,4.80
2019-03-08T22:19:48.395Z,5.00
2019-03-08T22:24:53.476Z,5.20
2019-03-08T22:29:59.790Z,5.40
2019-03-08T22:35:06.112Z,5.50
2019-03-08T22:40:11.430Z,5.80
2019-03-08T22:45:16.455Z,5.90
2019-03-08T22:50:23.749Z,6.20
2019-03-08T22:55:29.052Z,6.40
2019-03-08T23:01:05.320Z,6.60
2019-03-08T23:06:10.470Z,6.70
2019-03-08T23:11:15.503Z,6.80
2019-03-08T23:16:21.762Z,6.80
2019-03-08T23:21:26.982Z,6.80
2019-03-08T23:26:38.411Z,6.70
2019-03-08T23:32:02.402Z,6.60
2019-03-08T23:37:07.772Z,6.40
2019-03-08T23:42:13.208Z,6.30
2019-03-08T23:47:18.540Z,6.30
2019-03-08T23:52:23.930Z,6.20
2019-03-08T23:57:29.294Z,6.20
